sensor_id;sensor_type;location;lat;lon;timestamp;temperature;humidity
9790;DHT22;4934;50.852;8.098;2024-02-26T00:01:27;4.90;99.90
9790;DHT22;4934;50.852;8.098;2024-02-26T00:03:53;4.90;99.90
9790;DHT22;4934;50.852;8.098;2024-02-26T00:06:20;5.00;99.90
9790;DHT22;4934;50.852;8.098;2024-02-26T00:08:46;4.90;99.90
9790;DHT22;4934;50.852;8.098;2024-02-26T00:11:12;4.90;99.90
9790;DHT22;4934;50.852;8.098;2024-02-26T00:13:37;4.90;99.90
9790;DHT22;4934;50.852;8.098;2024-02-26T00:16:04;4.90;99.90
9790;DHT22;4934;50.852;8.098;2024-02-26T00:18:30;5.00;99.90
9790;DHT22;4934;50.852;8.098;2024-02-26T00:20:55;4.90;99.90
9790;DHT22;4934;50.852;8.098;2024-02-26T00:23:21;5.00;99.90
9790;DHT22;4934;50.852;8.098;2024-02-26T00:25:47;4.90;99.90
9790;DHT22;4934;50.852;8.098;2024-02-26T00:28:13;4.90;99.90
9790;DHT22;4934;50.852;8.098;2024-02-26T00:30:39;4.90;99.90
9790;DHT22;4934;50.852;8.098;2024-02-26T00:33:04;4.90;99.90
9790;DHT22;4934;50.852;8.098;2024-02-26T00:35:30;4.90;99.90
9790;DHT22;4934;50.852;8.098;2024-02-26T00:37:55;4.90;99.90
9790;DHT22;4934;50.852;8.098;2024-02-26T00:40:21;4.90;99.90
9790;DHT22;4934;50.852;8.098;2024-02-26T00:42:47;4.90;99.90
9790;DHT22;4934;50.852;8.098;2024-02-26T00:45:13;4.90;99.90
9790;DHT22;4934;50.852;8.098;2024-02-26T00:47:39;5.00;99.90
9790;DHT22;4934;50.852;8.098;2024-02-26T00:50:07;4.90;99.90
9790;DHT22;4934;50.852;8.098;2024-02-26T00:52:34;4.90;99.90
9790;DHT22;4934;50.852;8.098;2024-02-26T00:54:59;4.90;99.90
9790;DHT22;4934;50.852;8.098;2024-02-26T00:57:25;5.00;99.90
9790;DHT22;4934;50.852;8.098;2024-02-26T00:59:51;4.90;99.90
9790;DHT22;4934;50.852;8.098;2024-02-26T01:02:16;5.00;99.90
9790;DHT22;4934;50.852;8.098;2024-02-26T01:04:42;4.90;99.90
9790;DHT22;4934;50.852;8.098;2024-02-26T01:07:08;4.90;99.90
9790;DHT22;4934;50.852;8.098;2024-02-26T01:09:34;4.90;99.90
9790;DHT22;4934;50.852;8.098;2024-02-26T01:11:59;4.90;99.90
9790;DHT22;4934;50.852;8.098;2024-02-26T01:14:25;4.90;99.90
9790;DHT22;4934;50.852;8.098;2024-02-26T01:16:51;4.90;99.90
9790;DHT22;4934;50.852;8.098;2024-02-26T01:19:16;4.90;99.90
9790;DHT22;4934;50.852;8.098;2024-02-26T01:21:42;4.90;99.90
9790;DHT22;4934;50.852;8.098;2024-02-26T01:24:07;4.90;99.90
9790;DHT22;4934;50.852;8.098;2024-02-26T01:26:33;5.00;99.90
9790;DHT22;4934;50.852;8.098;2024-02-26T01:28:59;5.00;99.90
9790;DHT22;4934;50.852;8.098;2024-02-26T01:31:24;5.00;99.90
9790;DHT22;4934;50.852;8.098;2024-02-26T01:33:50;5.00;99.90
9790;DHT22;4934;50.852;8.098;2024-02-26T01:36:15;5.00;99.90
9790;DHT22;4934;50.852;8.098;2024-02-26T01:38:41;5.00;99.90
9790;DHT22;4934;50.852;8.098;2024-02-26T01:41:06;5.00;99.90
9790;DHT22;4934;50.852;8.098;2024-02-26T01:43:32;4.90;99.90
9790;DHT22;4934;50.852;8.098;2024-02-26T01:45:58;4.90;1.00
9790;DHT22;4934;50.852;8.098;2024-02-26T01:48:24;4.80;1.00
9790;DHT22;4934;50.852;8.098;2024-02-26T01:50:49;4.80;1.00
9790;DHT22;4934;50.852;8.098;2024-02-26T01:53:16;4.80;1.00
9790;DHT22;4934;50.852;8.098;2024-02-26T01:55:42;4.80;1.00
9790;DHT22;4934;50.852;8.098;2024-02-26T01:58:08;4.80;1.00
9790;DHT22;4934;50.852;8.098;2024-02-26T02:00:34;4.80;1.00
9790;DHT22;4934;50.852;8.098;2024-02-26T02:03:01;4.90;1.00
9790;DHT22;4934;50.852;8.098;2024-02-26T02:05:28;4.80;1.00
9790;DHT22;4934;50.852;8.098;2024-02-26T02:07:54;4.80;1.00
9790;DHT22;4934;50.852;8.098;2024-02-26T02:10:20;4.80;1.00
9790;DHT22;4934;50.852;8.098;2024-02-26T02:12:48;5.00;1.00
9790;DHT22;4934;50.852;8.098;2024-02-26T02:15:14;5.00;1.00
9790;DHT22;4934;50.852;8.098;2024-02-26T02:17:39;5.00;1.00
9790;DHT22;4934;50.852;8.098;2024-02-26T02:20:15;5.00;1.00
9790;DHT22;4934;50.852;8.098;2024-02-26T02:22:42;5.00;1.00
9790;DHT22;4934;50.852;8.098;2024-02-26T02:25:07;4.90;1.00
9790;DHT22;4934;50.852;8.098;2024-02-26T02:27:33;4.90;1.00
9790;DHT22;4934;50.852;8.098;2024-02-26T02:29:59;4.80;1.00
9790;DHT22;4934;50.852;8.098;2024-02-26T02:32:25;4.80;1.00
9790;DHT22;4934;50.852;8.098;2024-02-26T02:34:51;4.80;1.00
9790;DHT22;4934;50.852;8.098;2024-02-26T02:37:17;4.80;1.00
9790;DHT22;4934;50.852;8.098;2024-02-26T02:39:43;4.80;1.00
9790;DHT22;4934;50.852;8.098;2024-02-26T02:42:09;4.70;1.00
9790;DHT22;4934;50.852;8.098;2024-02-26T02:44:35;4.70;1.00
9790;DHT22;4934;50.852;8.098;2024-02-26T02:47:01;4.80;1.00
9790;DHT22;4934;50.852;8.098;2024-02-26T02:49:27;4.80;1.00
9790;DHT22;4934;50.852;8.098;2024-02-26T02:51:52;4.80;1.00
9790;DHT22;4934;50.852;8.098;2024-02-26T02:54:20;4.80;1.00
9790;DHT22;4934;50.852;8.098;2024-02-26T02:56:45;4.80;1.00
9790;DHT22;4934;50.852;8.098;2024-02-26T02:59:11;4.80;1.00
9790;DHT22;4934;50.852;8.098;2024-02-26T03:01:36;4.90;1.00
9790;DHT22;4934;50.852;8.098;2024-02-26T03:04:02;4.90;1.00
9790;DHT22;4934;50.852;8.098;2024-02-26T03:06:28;4.80;1.00
9790;DHT22;4934;50.852;8.098;2024-02-26T03:08:54;4.80;1.00
9790;DHT22;4934;50.852;8.098;2024-02-26T03:11:20;4.90;1.00
9790;DHT22;4934;50.852;8.098;2024-02-26T03:13:46;4.90;1.00
9790;DHT22;4934;50.852;8.098;2024-02-26T03:16:11;4.90;1.00
9790;DHT22;4934;50.852;8.098;2024-02-26T03:18:40;4.90;1.00
9790;DHT22;4934;50.852;8.098;2024-02-26T03:21:06;4.90;1.00
9790;DHT22;4934;50.852;8.098;2024-02-26T03:23:32;4.80;1.00
9790;DHT22;4934;50.852;8.098;2024-02-26T03:26:02;4.80;1.00
9790;DHT22;4934;50.852;8.098;2024-02-26T03:28:28;4.90;1.00
9790;DHT22;4934;50.852;8.098;2024-02-26T03:30:53;5.00;99.90
9790;DHT22;4934;50.852;8.098;2024-02-26T03:33:19;5.00;99.90
9790;DHT22;4934;50.852;8.098;2024-02-26T03:35:44;5.00;99.90
9790;DHT22;4934;50.852;8.098;2024-02-26T03:38:10;5.00;99.90
9790;DHT22;4934;50.852;8.098;2024-02-26T03:40:36;5.10;99.90
9790;DHT22;4934;50.852;8.098;2024-02-26T03:43:01;5.20;99.90
9790;DHT22;4934;50.852;8.098;2024-02-26T03:45:28;5.10;99.90
9790;DHT22;4934;50.852;8.098;2024-02-26T03:47:53;5.10;99.90
9790;DHT22;4934;50.852;8.098;2024-02-26T03:50:19;5.00;99.90
9790;DHT22;4934;50.852;8.098;2024-02-26T03:52:44;5.10;99.90
9790;DHT22;4934;50.852;8.098;2024-02-26T03:55:10;5.10;99.90
9790;DHT22;4934;50.852;8.098;2024-02-26T03:57:36;5.10;99.90
9790;DHT22;4934;50.852;8.098;2024-02-26T04:00:01;5.10;1.00
9790;DHT22;4934;50.852;8.098;2024-02-26T04:02:28;5.20;1.00
9790;DHT22;4934;50.852;8.098;2024-02-26T04:04:54;5.10;1.00
9790;DHT22;4934;50.852;8.098;2024-02-26T04:07:19;5.10;1.00
9790;DHT22;4934;50.852;8.098;2024-02-26T04:09:45;5.10;1.00
9790;DHT22;4934;50.852;8.098;2024-02-26T04:12:10;5.10;1.00
9790;DHT22;4934;50.852;8.098;2024-02-26T04:14:36;5.10;99.90
9790;DHT22;4934;50.852;8.098;2024-02-26T04:17:02;5.20;99.90
9790;DHT22;4934;50.852;8.098;2024-02-26T04:19:28;5.20;99.90
9790;DHT22;4934;50.852;8.098;2024-02-26T04:21:54;5.30;99.90
9790;DHT22;4934;50.852;8.098;2024-02-26T04:24:20;5.20;99.90
9790;DHT22;4934;50.852;8.098;2024-02-26T04:26:45;5.20;99.90
9790;DHT22;4934;50.852;8.098;2024-02-26T04:29:11;5.20;99.90
9790;DHT22;4934;50.852;8.098;2024-02-26T04:31:37;5.20;99.90
9790;DHT22;4934;50.852;8.098;2024-02-26T04:34:03;5.20;99.90
9790;DHT22;4934;50.852;8.098;2024-02-26T04:36:28;5.20;99.90
9790;DHT22;4934;50.852;8.098;2024-02-26T04:38:54;5.10;1.00
9790;DHT22;4934;50.852;8.098;2024-02-26T04:41:21;5.20;1.00
9790;DHT22;4934;50.852;8.098;2024-02-26T04:43:47;5.30;99.90
9790;DHT22;4934;50.852;8.098;2024-02-26T04:46:12;5.20;99.90
9790;DHT22;4934;50.852;8.098;2024-02-26T04:48:38;5.20;99.90
9790;DHT22;4934;50.852;8.098;2024-02-26T04:51:04;5.30;99.90
9790;DHT22;4934;50.852;8.098;2024-02-26T04:53:30;5.20;99.90
9790;DHT22;4934;50.852;8.098;2024-02-26T04:55:55;5.20;99.90
9790;DHT22;4934;50.852;8.098;2024-02-26T04:58:21;5.10;99.90
9790;DHT22;4934;50.852;8.098;2024-02-26T05:00:46;5.10;1.00
9790;DHT22;4934;50.852;8.098;2024-02-26T05:03:12;5.10;1.00
9790;DHT22;4934;50.852;8.098;2024-02-26T05:05:47;5.10;1.00
9790;DHT22;4934;50.852;8.098;2024-02-26T05:08:13;5.10;1.00
9790;DHT22;4934;50.852;8.098;2024-02-26T05:10:39;5.00;1.00
9790;DHT22;4934;50.852;8.098;2024-02-26T05:13:06;5.10;1.00
9790;DHT22;4934;50.852;8.098;2024-02-26T05:15:32;5.10;1.00
9790;DHT22;4934;50.852;8.098;2024-02-26T05:17:58;5.00;1.00
9790;DHT22;4934;50.852;8.098;2024-02-26T05:20:24;5.00;1.00
9790;DHT22;4934;50.852;8.098;2024-02-26T05:22:50;5.00;1.00
9790;DHT22;4934;50.852;8.098;2024-02-26T05:25:16;5.10;1.00
9790;DHT22;4934;50.852;8.098;2024-02-26T05:27:43;5.10;99.90
9790;DHT22;4934;50.852;8.098;2024-02-26T05:30:09;5.10;99.90
9790;DHT22;4934;50.852;8.098;2024-02-26T05:32:35;5.10;99.90
9790;DHT22;4934;50.852;8.098;2024-02-26T05:35:01;5.10;99.90
9790;DHT22;4934;50.852;8.098;2024-02-26T05:37:29;5.10;1.00
9790;DHT22;4934;50.852;8.098;2024-02-26T05:39:55;5.00;1.00
9790;DHT22;4934;50.852;8.098;2024-02-26T05:42:20;5.00;1.00
9790;DHT22;4934;50.852;8.098;2024-02-26T05:44:46;5.00;1.00
9790;DHT22;4934;50.852;8.098;2024-02-26T05:47:12;5.00;1.00
9790;DHT22;4934;50.852;8.098;2024-02-26T05:49:39;5.00;1.00
9790;DHT22;4934;50.852;8.098;2024-02-26T05:52:05;4.90;1.00
9790;DHT22;4934;50.852;8.098;2024-02-26T05:54:30;4.90;1.00
9790;DHT22;4934;50.852;8.098;2024-02-26T05:56:56;4.90;1.00
9790;DHT22;4934;50.852;8.098;2024-02-26T05:59:22;4.80;1.00
9790;DHT22;4934;50.852;8.098;2024-02-26T06:01:48;4.80;1.00
9790;DHT22;4934;50.852;8.098;2024-02-26T06:04:13;4.90;26.90
9790;DHT22;4934;50.852;8.098;2024-02-26T06:06:39;5.00;22.00
9790;DHT22;4934;50.852;8.098;2024-02-26T06:09:04;4.90;1.00
9790;DHT22;4934;50.852;8.098;2024-02-26T06:11:30;4.90;39.80
9790;DHT22;4934;50.852;8.098;2024-02-26T06:13:56;4.90;15.30
9790;DHT22;4934;50.852;8.098;2024-02-26T06:16:22;4.90;94.10
9790;DHT22;4934;50.852;8.098;2024-02-26T06:18:47;4.90;99.90
9790;DHT22;4934;50.852;8.098;2024-02-26T06:21:13;4.90;91.40
9790;DHT22;4934;50.852;8.098;2024-02-26T06:23:39;4.90;95.10
9790;DHT22;4934;50.852;8.098;2024-02-26T06:26:05;4.90;99.90
9790;DHT22;4934;50.852;8.098;2024-02-26T06:28:31;4.90;99.90
9790;DHT22;4934;50.852;8.098;2024-02-26T06:30:58;4.80;99.90
9790;DHT22;4934;50.852;8.098;2024-02-26T06:33:24;4.80;99.90
9790;DHT22;4934;50.852;8.098;2024-02-26T06:35:49;4.80;99.90
9790;DHT22;4934;50.852;8.098;2024-02-26T06:38:15;4.80;99.90
9790;DHT22;4934;50.852;8.098;2024-02-26T06:40:41;4.80;99.90
9790;DHT22;4934;50.852;8.098;2024-02-26T06:43:06;4.90;99.90
9790;DHT22;4934;50.852;8.098;2024-02-26T06:45:32;4.80;99.90
9790;DHT22;4934;50.852;8.098;2024-02-26T06:47:58;4.70;99.90
9790;DHT22;4934;50.852;8.098;2024-02-26T06:50:23;4.70;99.90
9790;DHT22;4934;50.852;8.098;2024-02-26T06:52:49;4.60;99.90
9790;DHT22;4934;50.852;8.098;2024-02-26T06:55:14;4.70;99.90
9790;DHT22;4934;50.852;8.098;2024-02-26T06:57:40;4.60;99.90
9790;DHT22;4934;50.852;8.098;2024-02-26T07:00:06;4.60;99.90
9790;DHT22;4934;50.852;8.098;2024-02-26T07:02:32;4.70;99.90
9790;DHT22;4934;50.852;8.098;2024-02-26T07:04:57;4.60;99.90
9790;DHT22;4934;50.852;8.098;2024-02-26T07:07:24;4.70;99.90
9790;DHT22;4934;50.852;8.098;2024-02-26T07:09:50;4.80;99.90
9790;DHT22;4934;50.852;8.098;2024-02-26T07:12:15;4.60;99.90
9790;DHT22;4934;50.852;8.098;2024-02-26T07:14:41;4.70;99.90
9790;DHT22;4934;50.852;8.098;2024-02-26T07:17:07;4.70;99.90
9790;DHT22;4934;50.852;8.098;2024-02-26T07:19:33;4.70;99.90
9790;DHT22;4934;50.852;8.098;2024-02-26T07:21:59;4.70;99.90
9790;DHT22;4934;50.852;8.098;2024-02-26T07:24:27;4.60;99.90
9790;DHT22;4934;50.852;8.098;2024-02-26T07:26:53;4.70;99.90
9790;DHT22;4934;50.852;8.098;2024-02-26T07:29:22;4.70;99.90
9790;DHT22;4934;50.852;8.098;2024-02-26T07:31:47;4.70;99.90
9790;DHT22;4934;50.852;8.098;2024-02-26T07:34:13;4.70;99.90
9790;DHT22;4934;50.852;8.098;2024-02-26T07:36:39;4.70;99.90
9790;DHT22;4934;50.852;8.098;2024-02-26T07:39:05;4.80;99.90
9790;DHT22;4934;50.852;8.098;2024-02-26T07:41:30;4.80;99.90
9790;DHT22;4934;50.852;8.098;2024-02-26T07:43:56;4.80;99.90
9790;DHT22;4934;50.852;8.098;2024-02-26T07:46:21;4.80;99.90
9790;DHT22;4934;50.852;8.098;2024-02-26T07:48:47;4.80;99.90
9790;DHT22;4934;50.852;8.098;2024-02-26T07:51:13;4.80;99.90
9790;DHT22;4934;50.852;8.098;2024-02-26T07:53:42;4.80;99.90
9790;DHT22;4934;50.852;8.098;2024-02-26T07:56:09;4.80;99.90
9790;DHT22;4934;50.852;8.098;2024-02-26T07:58:34;4.80;99.90
9790;DHT22;4934;50.852;8.098;2024-02-26T08:01:00;4.90;99.90
9790;DHT22;4934;50.852;8.098;2024-02-26T08:03:26;4.90;99.90
9790;DHT22;4934;50.852;8.098;2024-02-26T08:05:52;4.80;99.90
9790;DHT22;4934;50.852;8.098;2024-02-26T08:08:17;4.80;99.90
9790;DHT22;4934;50.852;8.098;2024-02-26T08:10:43;4.90;99.90
9790;DHT22;4934;50.852;8.098;2024-02-26T08:13:09;4.80;99.90
9790;DHT22;4934;50.852;8.098;2024-02-26T08:15:35;4.80;99.90
9790;DHT22;4934;50.852;8.098;2024-02-26T08:18:02;4.80;99.90
9790;DHT22;4934;50.852;8.098;2024-02-26T08:20:29;4.90;99.90
9790;DHT22;4934;50.852;8.098;2024-02-26T08:22:55;4.90;99.90
9790;DHT22;4934;50.852;8.098;2024-02-26T08:25:20;4.90;99.90
9790;DHT22;4934;50.852;8.098;2024-02-26T08:27:46;4.90;1.00
9790;DHT22;4934;50.852;8.098;2024-02-26T08:30:13;5.00;1.00
9790;DHT22;4934;50.852;8.098;2024-02-26T08:32:45;4.90;1.00
9790;DHT22;4934;50.852;8.098;2024-02-26T08:35:11;5.00;99.90
9790;DHT22;4934;50.852;8.098;2024-02-26T08:37:36;5.00;99.90
9790;DHT22;4934;50.852;8.098;2024-02-26T08:40:02;4.90;99.90
9790;DHT22;4934;50.852;8.098;2024-02-26T08:42:29;4.90;1.00
9790;DHT22;4934;50.852;8.098;2024-02-26T08:44:55;4.90;99.90
9790;DHT22;4934;50.852;8.098;2024-02-26T08:47:20;4.90;1.00
9790;DHT22;4934;50.852;8.098;2024-02-26T08:49:46;4.90;99.90
9790;DHT22;4934;50.852;8.098;2024-02-26T08:52:11;4.80;1.00
9790;DHT22;4934;50.852;8.098;2024-02-26T08:54:37;4.80;1.00
9790;DHT22;4934;50.852;8.098;2024-02-26T08:57:03;4.90;1.00
9790;DHT22;4934;50.852;8.098;2024-02-26T08:59:29;5.00;1.00
9790;DHT22;4934;50.852;8.098;2024-02-26T09:01:54;5.00;1.00
9790;DHT22;4934;50.852;8.098;2024-02-26T09:04:20;5.10;1.00
9790;DHT22;4934;50.852;8.098;2024-02-26T09:06:46;5.00;1.00
9790;DHT22;4934;50.852;8.098;2024-02-26T09:09:12;5.10;1.00
9790;DHT22;4934;50.852;8.098;2024-02-26T09:11:37;5.20;1.00
9790;DHT22;4934;50.852;8.098;2024-02-26T09:14:03;5.30;1.00
9790;DHT22;4934;50.852;8.098;2024-02-26T09:16:29;5.30;1.00
9790;DHT22;4934;50.852;8.098;2024-02-26T09:18:55;5.30;1.00
9790;DHT22;4934;50.852;8.098;2024-02-26T09:21:21;5.40;1.00
9790;DHT22;4934;50.852;8.098;2024-02-26T09:23:50;5.40;99.90
9790;DHT22;4934;50.852;8.098;2024-02-26T09:26:15;5.30;1.00
9790;DHT22;4934;50.852;8.098;2024-02-26T09:28:41;5.30;1.00
9790;DHT22;4934;50.852;8.098;2024-02-26T09:31:07;5.30;1.00
9790;DHT22;4934;50.852;8.098;2024-02-26T09:33:33;5.30;1.00
9790;DHT22;4934;50.852;8.098;2024-02-26T09:35:59;5.30;1.00
9790;DHT22;4934;50.852;8.098;2024-02-26T09:38:28;5.30;1.00
9790;DHT22;4934;50.852;8.098;2024-02-26T09:40:57;5.40;1.00
9790;DHT22;4934;50.852;8.098;2024-02-26T09:43:23;5.40;1.00
9790;DHT22;4934;50.852;8.098;2024-02-26T09:45:54;5.50;1.00
9790;DHT22;4934;50.852;8.098;2024-02-26T09:48:20;5.50;1.00
9790;DHT22;4934;50.852;8.098;2024-02-26T09:50:46;5.70;1.00
9790;DHT22;4934;50.852;8.098;2024-02-26T09:53:12;5.70;1.00
9790;DHT22;4934;50.852;8.098;2024-02-26T09:55:40;5.80;1.00
9790;DHT22;4934;50.852;8.098;2024-02-26T09:58:06;5.80;1.00
9790;DHT22;4934;50.852;8.098;2024-02-26T10:00:36;5.80;1.00
9790;DHT22;4934;50.852;8.098;2024-02-26T10:03:04;5.90;1.00
9790;DHT22;4934;50.852;8.098;2024-02-26T10:05:31;6.00;99.90
9790;DHT22;4934;50.852;8.098;2024-02-26T10:07:58;5.90;99.90
9790;DHT22;4934;50.852;8.098;2024-02-26T10:10:25;5.90;1.00
9790;DHT22;4934;50.852;8.098;2024-02-26T10:12:53;6.00;99.90
9790;DHT22;4934;50.852;8.098;2024-02-26T10:15:18;6.00;99.90
9790;DHT22;4934;50.852;8.098;2024-02-26T10:17:44;6.00;99.90
9790;DHT22;4934;50.852;8.098;2024-02-26T10:20:14;6.10;1.00
9790;DHT22;4934;50.852;8.098;2024-02-26T10:22:41;6.20;1.00
9790;DHT22;4934;50.852;8.098;2024-02-26T10:25:08;6.40;1.00
9790;DHT22;4934;50.852;8.098;2024-02-26T10:27:34;6.40;99.90
9790;DHT22;4934;50.852;8.098;2024-02-26T10:30:04;6.40;99.90
9790;DHT22;4934;50.852;8.098;2024-02-26T10:32:30;6.40;99.90
9790;DHT22;4934;50.852;8.098;2024-02-26T10:34:57;6.40;99.90
9790;DHT22;4934;50.852;8.098;2024-02-26T10:37:23;6.40;1.00
9790;DHT22;4934;50.852;8.098;2024-02-26T10:39:49;6.60;99.90
9790;DHT22;4934;50.852;8.098;2024-02-26T10:42:15;6.50;99.90
9790;DHT22;4934;50.852;8.098;2024-02-26T10:44:43;6.50;99.90
9790;DHT22;4934;50.852;8.098;2024-02-26T10:47:10;6.60;99.90
9790;DHT22;4934;50.852;8.098;2024-02-26T10:49:36;6.70;99.90
9790;DHT22;4934;50.852;8.098;2024-02-26T10:52:02;6.70;99.90
9790;DHT22;4934;50.852;8.098;2024-02-26T10:54:29;6.70;99.90
9790;DHT22;4934;50.852;8.098;2024-02-26T10:56:58;6.70;99.90
9790;DHT22;4934;50.852;8.098;2024-02-26T10:59:24;6.60;99.90
9790;DHT22;4934;50.852;8.098;2024-02-26T11:01:51;6.70;99.90
9790;DHT22;4934;50.852;8.098;2024-02-26T11:04:18;6.70;99.90
9790;DHT22;4934;50.852;8.098;2024-02-26T11:06:45;6.80;95.50
9790;DHT22;4934;50.852;8.098;2024-02-26T11:09:13;6.80;99.90
9790;DHT22;4934;50.852;8.098;2024-02-26T11:11:40;7.00;99.90
9790;DHT22;4934;50.852;8.098;2024-02-26T11:14:08;6.90;99.90
9790;DHT22;4934;50.852;8.098;2024-02-26T11:16:35;7.00;99.90
9790;DHT22;4934;50.852;8.098;2024-02-26T11:19:02;7.00;1.00
9790;DHT22;4934;50.852;8.098;2024-02-26T11:21:28;7.00;99.90
9790;DHT22;4934;50.852;8.098;2024-02-26T11:24:05;7.10;1.00
9790;DHT22;4934;50.852;8.098;2024-02-26T11:26:34;6.90;99.90
9790;DHT22;4934;50.852;8.098;2024-02-26T11:29:02;6.90;99.90
9790;DHT22;4934;50.852;8.098;2024-02-26T11:31:28;6.80;99.90
9790;DHT22;4934;50.852;8.098;2024-02-26T11:33:56;6.80;99.90
9790;DHT22;4934;50.852;8.098;2024-02-26T11:36:24;6.90;99.90
9790;DHT22;4934;50.852;8.098;2024-02-26T11:38:49;7.00;99.90
9790;DHT22;4934;50.852;8.098;2024-02-26T11:41:18;7.00;87.80
9790;DHT22;4934;50.852;8.098;2024-02-26T11:44:00;6.90;99.90
9790;DHT22;4934;50.852;8.098;2024-02-26T11:46:33;6.90;41.50
9790;DHT22;4934;50.852;8.098;2024-02-26T11:51:53;7.00;99.90
9790;DHT22;4934;50.852;8.098;2024-02-26T11:54:52;6.90;1.00
9790;DHT22;4934;50.852;8.098;2024-02-26T11:57:28;7.00;99.90
9790;DHT22;4934;50.852;8.098;2024-02-26T12:00:13;7.10;99.90
9790;DHT22;4934;50.852;8.098;2024-02-26T12:05:14;7.10;39.80
9790;DHT22;4934;50.852;8.098;2024-02-26T12:07:46;7.00;82.70
9790;DHT22;4934;50.852;8.098;2024-02-26T12:10:28;7.00;99.90
9790;DHT22;4934;50.852;8.098;2024-02-26T12:13:00;7.10;99.90
9790;DHT22;4934;50.852;8.098;2024-02-26T12:15:32;7.20;1.00
9790;DHT22;4934;50.852;8.098;2024-02-26T12:18:02;7.20;47.80
9790;DHT22;4934;50.852;8.098;2024-02-26T12:20:28;7.40;1.00
9790;DHT22;4934;50.852;8.098;2024-02-26T12:22:54;7.40;7.80
9790;DHT22;4934;50.852;8.098;2024-02-26T12:25:28;7.60;99.90
9790;DHT22;4934;50.852;8.098;2024-02-26T12:27:55;7.70;1.00
9790;DHT22;4934;50.852;8.098;2024-02-26T12:30:21;7.80;1.00
9790;DHT22;4934;50.852;8.098;2024-02-26T12:32:48;7.90;1.00
9790;DHT22;4934;50.852;8.098;2024-02-26T12:35:15;7.90;1.00
9790;DHT22;4934;50.852;8.098;2024-02-26T12:37:41;8.00;1.00
9790;DHT22;4934;50.852;8.098;2024-02-26T12:40:08;8.10;1.00
9790;DHT22;4934;50.852;8.098;2024-02-26T12:42:38;8.20;1.00
9790;DHT22;4934;50.852;8.098;2024-02-26T12:45:09;8.10;1.00
9790;DHT22;4934;50.852;8.098;2024-02-26T12:47:40;8.10;1.00
9790;DHT22;4934;50.852;8.098;2024-02-26T12:50:07;8.00;99.90
9790;DHT22;4934;50.852;8.098;2024-02-26T12:52:42;8.10;1.00
9790;DHT22;4934;50.852;8.098;2024-02-26T12:55:09;8.10;99.90
9790;DHT22;4934;50.852;8.098;2024-02-26T12:57:38;8.00;1.00
9790;DHT22;4934;50.852;8.098;2024-02-26T13:00:08;8.00;1.00
9790;DHT22;4934;50.852;8.098;2024-02-26T13:02:37;8.10;1.00
9790;DHT22;4934;50.852;8.098;2024-02-26T13:05:06;8.10;1.00
9790;DHT22;4934;50.852;8.098;2024-02-26T13:07:32;8.00;1.00
9790;DHT22;4934;50.852;8.098;2024-02-26T13:09:58;8.10;99.90
9790;DHT22;4934;50.852;8.098;2024-02-26T13:12:24;8.10;1.00
9790;DHT22;4934;50.852;8.098;2024-02-26T13:15:00;8.10;1.00
9790;DHT22;4934;50.852;8.098;2024-02-26T13:17:26;8.20;99.90
9790;DHT22;4934;50.852;8.098;2024-02-26T13:19:53;8.20;1.00
9790;DHT22;4934;50.852;8.098;2024-02-26T13:22:22;8.20;99.90
9790;DHT22;4934;50.852;8.098;2024-02-26T13:24:56;8.30;1.00
9790;DHT22;4934;50.852;8.098;2024-02-26T13:27:23;8.30;99.90
9790;DHT22;4934;50.852;8.098;2024-02-26T13:29:49;8.50;99.90
9790;DHT22;4934;50.852;8.098;2024-02-26T13:32:14;8.50;99.90
9790;DHT22;4934;50.852;8.098;2024-02-26T13:34:40;8.50;99.90
9790;DHT22;4934;50.852;8.098;2024-02-26T13:37:05;8.40;99.90
9790;DHT22;4934;50.852;8.098;2024-02-26T13:39:31;8.40;99.90
9790;DHT22;4934;50.852;8.098;2024-02-26T13:41:57;8.50;99.90
9790;DHT22;4934;50.852;8.098;2024-02-26T13:44:23;8.60;99.90
9790;DHT22;4934;50.852;8.098;2024-02-26T13:46:49;8.50;99.90
9790;DHT22;4934;50.852;8.098;2024-02-26T13:49:15;8.30;99.90
9790;DHT22;4934;50.852;8.098;2024-02-26T13:51:41;8.30;99.90
9790;DHT22;4934;50.852;8.098;2024-02-26T13:54:07;8.30;99.90
9790;DHT22;4934;50.852;8.098;2024-02-26T13:56:33;8.30;99.90
9790;DHT22;4934;50.852;8.098;2024-02-26T13:58:59;8.30;99.90
9790;DHT22;4934;50.852;8.098;2024-02-26T14:01:25;8.30;99.90
9790;DHT22;4934;50.852;8.098;2024-02-26T14:03:51;8.30;99.90
9790;DHT22;4934;50.852;8.098;2024-02-26T14:06:20;8.30;99.90
9790;DHT22;4934;50.852;8.098;2024-02-26T14:08:46;8.30;99.90
9790;DHT22;4934;50.852;8.098;2024-02-26T14:11:11;8.20;99.90
9790;DHT22;4934;50.852;8.098;2024-02-26T14:13:37;8.10;99.90
9790;DHT22;4934;50.852;8.098;2024-02-26T14:16:02;8.20;99.90
9790;DHT22;4934;50.852;8.098;2024-02-26T14:18:28;8.20;99.90
9790;DHT22;4934;50.852;8.098;2024-02-26T14:20:53;8.20;99.90
9790;DHT22;4934;50.852;8.098;2024-02-26T14:23:19;8.20;99.90
9790;DHT22;4934;50.852;8.098;2024-02-26T14:25:45;8.10;99.90
9790;DHT22;4934;50.852;8.098;2024-02-26T14:28:11;8.10;99.90
9790;DHT22;4934;50.852;8.098;2024-02-26T14:30:36;8.10;99.90
9790;DHT22;4934;50.852;8.098;2024-02-26T14:33:03;8.10;99.90
9790;DHT22;4934;50.852;8.098;2024-02-26T14:35:29;8.00;99.90
9790;DHT22;4934;50.852;8.098;2024-02-26T14:37:54;8.00;99.90
9790;DHT22;4934;50.852;8.098;2024-02-26T14:40:20;8.10;99.90
9790;DHT22;4934;50.852;8.098;2024-02-26T14:42:46;8.10;99.90
9790;DHT22;4934;50.852;8.098;2024-02-26T14:45:12;8.20;99.90
9790;DHT22;4934;50.852;8.098;2024-02-26T14:47:38;8.20;99.90
9790;DHT22;4934;50.852;8.098;2024-02-26T14:50:04;8.20;99.90
9790;DHT22;4934;50.852;8.098;2024-02-26T14:52:30;8.10;99.90
9790;DHT22;4934;50.852;8.098;2024-02-26T14:54:56;8.10;99.90
9790;DHT22;4934;50.852;8.098;2024-02-26T14:57:24;8.00;99.90
9790;DHT22;4934;50.852;8.098;2024-02-26T14:59:50;8.10;99.90
9790;DHT22;4934;50.852;8.098;2024-02-26T15:02:16;8.20;99.90
9790;DHT22;4934;50.852;8.098;2024-02-26T15:04:42;8.00;99.90
9790;DHT22;4934;50.852;8.098;2024-02-26T15:07:08;8.10;99.90
9790;DHT22;4934;50.852;8.098;2024-02-26T15:09:34;8.00;99.90
9790;DHT22;4934;50.852;8.098;2024-02-26T15:12:00;8.00;99.90
9790;DHT22;4934;50.852;8.098;2024-02-26T15:14:25;8.10;99.90
9790;DHT22;4934;50.852;8.098;2024-02-26T15:16:52;8.00;99.90
9790;DHT22;4934;50.852;8.098;2024-02-26T15:19:18;8.00;99.90
9790;DHT22;4934;50.852;8.098;2024-02-26T15:21:45;8.00;99.90
9790;DHT22;4934;50.852;8.098;2024-02-26T15:24:11;8.00;99.90
9790;DHT22;4934;50.852;8.098;2024-02-26T15:26:41;8.10;99.90
9790;DHT22;4934;50.852;8.098;2024-02-26T15:29:07;8.20;99.90
9790;DHT22;4934;50.852;8.098;2024-02-26T15:31:36;8.00;99.90
9790;DHT22;4934;50.852;8.098;2024-02-26T15:34:02;8.00;99.90
9790;DHT22;4934;50.852;8.098;2024-02-26T15:36:28;8.00;99.90
9790;DHT22;4934;50.852;8.098;2024-02-26T15:38:54;8.00;99.90
9790;DHT22;4934;50.852;8.098;2024-02-26T15:41:20;8.10;99.90
9790;DHT22;4934;50.852;8.098;2024-02-26T15:43:45;8.10;99.90
9790;DHT22;4934;50.852;8.098;2024-02-26T15:46:11;8.10;99.90
9790;DHT22;4934;50.852;8.098;2024-02-26T15:48:37;8.10;99.90
9790;DHT22;4934;50.852;8.098;2024-02-26T15:51:03;8.10;99.90
9790;DHT22;4934;50.852;8.098;2024-02-26T15:53:29;8.10;99.90
9790;DHT22;4934;50.852;8.098;2024-02-26T15:55:54;8.10;99.90
9790;DHT22;4934;50.852;8.098;2024-02-26T15:58:20;8.10;99.90
9790;DHT22;4934;50.852;8.098;2024-02-26T16:00:45;8.10;1.00
9790;DHT22;4934;50.852;8.098;2024-02-26T16:03:12;8.10;99.90
9790;DHT22;4934;50.852;8.098;2024-02-26T16:05:38;8.10;99.90
9790;DHT22;4934;50.852;8.098;2024-02-26T16:08:24;8.00;99.90
9790;DHT22;4934;50.852;8.098;2024-02-26T16:10:50;8.00;1.00
9790;DHT22;4934;50.852;8.098;2024-02-26T16:13:17;7.90;99.90
9790;DHT22;4934;50.852;8.098;2024-02-26T16:15:47;7.90;99.90
9790;DHT22;4934;50.852;8.098;2024-02-26T16:18:14;8.00;99.90
9790;DHT22;4934;50.852;8.098;2024-02-26T16:20:40;8.10;99.90
9790;DHT22;4934;50.852;8.098;2024-02-26T16:23:06;8.00;99.90
9790;DHT22;4934;50.852;8.098;2024-02-26T16:25:33;8.00;99.90